createdAt,value
2022-08-27T00:00:34.991Z,20.50
2022-08-27T00:02:09.377Z,20.45
2022-08-27T00:03:42.685Z,20.48
2022-08-27T00:05:18.084Z,20.46
2022-08-27T00:06:51.343Z,20.47
2022-08-27T00:08:25.948Z,20.39
2022-08-27T00:09:59.171Z,20.37
2022-08-27T00:11:32.582Z,20.38
2022-08-27T00:13:06.363Z,20.41
2022-08-27T00:14:40.180Z,20.43
2022-08-27T00:16:15.751Z,20.42
2022-08-27T00:17:49.410Z,20.37
2022-08-27T00:19:23.238Z,20.32
2022-08-27T00:20:56.532Z,20.27
2022-08-27T00:22:29.766Z,20.22
2022-08-27T00:24:04.799Z,20.20
2022-08-27T00:25:38.524Z,20.24
2022-08-27T00:27:11.740Z,20.30
2022-08-27T00:28:47.673Z,20.32
2022-08-27T00:30:23.619Z,20.38
2022-08-27T00:31:57.471Z,20.36
2022-08-27T00:33:30.892Z,20.28
2022-08-27T00:35:04.095Z,20.21
2022-08-27T00:36:37.328Z,20.16
2022-08-27T00:38:10.203Z,20.15
2022-08-27T00:39:44.964Z,20.15
2022-08-27T00:41:19.446Z,20.13
2022-08-27T00:42:52.797Z,20.17
2022-08-27T00:44:27.756Z,20.16
2022-08-27T00:46:16.847Z,20.13
2022-08-27T00:47:54.529Z,20.00
2022-08-27T00:49:31.342Z,19.96
2022-08-27T00:51:05.731Z,19.94
2022-08-27T00:52:46.718Z,19.93
2022-08-27T00:54:20.215Z,19.98
2022-08-27T00:55:59.976Z,20.02
2022-08-27T00:57:35.040Z,20.02
2022-08-27T00:59:08.190Z,20.00
2022-08-27T01:00:41.627Z,19.98
2022-08-27T01:02:20.411Z,19.96
2022-08-27T01:04:06.046Z,19.91
2022-08-27T01:05:40.482Z,19.86
2022-08-27T01:07:14.654Z,19.75
2022-08-27T01:08:52.416Z,19.74
2022-08-27T01:10:29.980Z,19.73
2022-08-27T01:12:05.580Z,19.77
2022-08-27T01:13:58.758Z,19.83
2022-08-27T01:15:33.957Z,19.79
2022-08-27T01:17:10.465Z,19.77
2022-08-27T01:18:44.581Z,19.76
2022-08-27T01:20:21.312Z,19.76
2022-08-27T01:22:01.203Z,19.74
2022-08-27T01:23:39.788Z,19.73
2022-08-27T01:25:16.986Z,19.73
2022-08-27T01:26:50.974Z,19.71
2022-08-27T01:28:35.864Z,19.69
2022-08-27T01:30:14.067Z,19.68
2022-08-27T01:31:48.359Z,19.68
2022-08-27T01:33:23.818Z,19.64
2022-08-27T01:34:57.951Z,19.63
2022-08-27T01:36:32.087Z,19.60
2022-08-27T01:38:06.150Z,19.62
2022-08-27T01:39:44.639Z,19.60
2022-08-27T01:41:20.710Z,19.60
2022-08-27T01:42:56.684Z,19.62
2022-08-27T01:44:28.877Z,19.65
2022-08-27T01:46:02.141Z,19.61
2022-08-27T01:47:36.846Z,19.66
2022-08-27T01:49:11.431Z,19.67
2022-08-27T01:50:44.469Z,19.69
2022-08-27T01:52:20.311Z,19.70
2022-08-27T01:53:54.257Z,19.68
2022-08-27T01:55:27.227Z,19.67
2022-08-27T01:57:01.957Z,19.68
2022-08-27T01:58:35.310Z,19.66
2022-08-27T02:00:12.612Z,19.62
2022-08-27T02:01:45.906Z,19.52
2022-08-27T02:03:19.413Z,19.53
2022-08-27T02:04:52.839Z,19.53
2022-08-27T02:06:26.288Z,19.58
2022-08-27T02:07:59.208Z,19.55
2022-08-27T02:09:33.295Z,19.60
2022-08-27T02:11:08.288Z,19.53
2022-08-27T02:12:43.269Z,19.50
2022-08-27T02:14:17.216Z,19.42
2022-08-27T02:15:50.694Z,19.37
2022-08-27T02:17:23.887Z,19.29
2022-08-27T02:18:57.483Z,19.24
2022-08-27T02:20:31.359Z,19.21
2022-08-27T02:22:04.670Z,19.20
2022-08-27T02:23:37.938Z,19.13
2022-08-27T02:25:14.101Z,19.15
2022-08-27T02:26:47.467Z,19.11
2022-08-27T02:28:22.450Z,19.11
2022-08-27T02:29:55.877Z,19.14
2022-08-27T02:31:29.595Z,19.16
2022-08-27T02:33:04.447Z,19.17
2022-08-27T02:34:38.195Z,19.10
2022-08-27T02:36:11.995Z,19.17
2022-08-27T02:37:47.151Z,19.15
2022-08-27T02:39:20.552Z,19.17
2022-08-27T02:40:54.064Z,19.16
2022-08-27T02:42:27.437Z,19.16
2022-08-27T02:44:02.796Z,19.19
2022-08-27T02:45:41.055Z,19.12
2022-08-27T02:47:14.428Z,19.07
2022-08-27T02:48:47.715Z,19.07
2022-08-27T02:50:22.191Z,19.03
2022-08-27T02:52:00.294Z,19.03
2022-08-27T02:53:34.653Z,19.00
2022-08-27T02:55:08.945Z,18.90
2022-08-27T02:56:42.761Z,18.89
2022-08-27T02:58:17.005Z,18.91
2022-08-27T02:59:52.719Z,18.85
2022-08-27T03:01:26.131Z,18.78
2022-08-27T03:02:59.916Z,18.73
2022-08-27T03:04:33.230Z,18.68
2022-08-27T03:06:06.678Z,18.64
2022-08-27T03:07:40.393Z,18.61
2022-08-27T03:09:14.562Z,18.58
2022-08-27T03:10:46.884Z,18.55
2022-08-27T03:12:20.255Z,18.50
2022-08-27T03:13:56.160Z,18.42
2022-08-27T03:15:31.295Z,18.44
2022-08-27T03:17:18.557Z,18.42
2022-08-27T03:18:51.828Z,18.42
2022-08-27T03:20:25.497Z,18.44
2022-08-27T03:21:59.456Z,18.47
2022-08-27T03:23:34.191Z,18.48
2022-08-27T03:25:08.469Z,18.44
2022-08-27T03:26:41.797Z,18.41
2022-08-27T03:28:30.504Z,18.37
2022-08-27T03:30:04.199Z,18.36
2022-08-27T03:31:38.969Z,18.38
2022-08-27T03:33:12.176Z,18.32
2022-08-27T03:34:45.845Z,18.30
2022-08-27T03:36:19.040Z,18.30
2022-08-27T03:37:51.686Z,18.29
2022-08-27T03:39:24.927Z,18.27
2022-08-27T03:40:58.863Z,18.27
2022-08-27T03:42:31.088Z,18.23
2022-08-27T03:44:04.665Z,18.23
2022-08-27T03:46:00.792Z,18.20
2022-08-27T03:47:33.369Z,18.22
2022-08-27T03:49:06.918Z,18.21
2022-08-27T03:50:41.651Z,18.26
2022-08-27T03:52:15.119Z,18.26
2022-08-27T03:53:49.244Z,18.25
2022-08-27T03:55:22.575Z,18.22
2022-08-27T03:56:54.855Z,18.20
2022-08-27T03:58:28.349Z,18.11
2022-08-27T04:00:01.599Z,18.18
2022-08-27T04:01:35.209Z,18.11
2022-08-27T04:03:09.919Z,18.07
2022-08-27T04:04:43.222Z,18.06
2022-08-27T04:06:16.814Z,18.10
2022-08-27T04:07:50.666Z,18.15
2022-08-27T04:09:23.951Z,18.20
2022-08-27T04:10:57.398Z,18.20
2022-08-27T04:12:31.317Z,18.19
2022-08-27T04:14:06.947Z,18.19
2022-08-27T04:15:58.041Z,18.15
2022-08-27T04:17:31.283Z,18.18
2022-08-27T04:19:06.315Z,18.18
2022-08-27T04:20:39.699Z,18.19
2022-08-27T04:22:13.082Z,18.20
2022-08-27T04:23:46.228Z,18.19
2022-08-27T04:25:19.992Z,18.22
2022-08-27T04:26:52.182Z,18.25
2022-08-27T04:28:25.537Z,18.29
2022-08-27T04:29:58.598Z,18.30
2022-08-27T04:31:32.620Z,18.37
2022-08-27T04:33:05.896Z,18.43
2022-08-27T04:34:41.143Z,18.45
2022-08-27T04:36:14.381Z,18.46
2022-08-27T04:37:47.910Z,18.48
2022-08-27T04:39:21.045Z,18.45
2022-08-27T04:41:11.580Z,18.50
2022-08-27T04:42:45.662Z,18.57
2022-08-27T04:44:18.343Z,18.63
2022-08-27T04:45:51.796Z,18.59
2022-08-27T04:47:25.024Z,18.72
2022-08-27T04:48:58.638Z,18.82
2022-08-27T04:50:33.747Z,18.92
2022-08-27T04:52:07.243Z,19.03
2022-08-27T04:53:40.486Z,19.22
2022-08-27T04:55:14.131Z,19.37
2022-08-27T04:56:47.672Z,19.62
2022-08-27T04:58:22.413Z,19.84
2022-08-27T04:59:57.046Z,20.07
2022-08-27T05:01:31.937Z,20.34
2022-08-27T05:03:05.900Z,20.63
2022-08-27T05:04:40.793Z,20.94
2022-08-27T05:06:14.816Z,21.23
2022-08-27T05:07:48.025Z,21.50
2022-08-27T05:09:21.902Z,21.80
2022-08-27T05:10:58.658Z,22.20
2022-08-27T05:12:31.875Z,22.54
2022-08-27T05:14:06.003Z,22.78
2022-08-27T05:15:39.644Z,22.91
2022-08-27T05:17:12.862Z,23.16
2022-08-27T05:18:48.306Z,23.42
2022-08-27T05:20:22.886Z,23.66
2022-08-27T05:21:58.300Z,23.86
2022-08-27T05:23:32.581Z,24.00
2022-08-27T05:25:11.369Z,24.17
2022-08-27T05:26:45.552Z,24.49
2022-08-27T05:28:21.830Z,24.74
2022-08-27T05:30:01.545Z,25.04
2022-08-27T05:31:35.331Z,25.19
2022-08-27T05:33:08.958Z,25.35
2022-08-27T05:34:43.343Z,25.47
2022-08-27T05:36:21.220Z,25.62
2022-08-27T05:37:55.728Z,25.83
2022-08-27T05:39:29.310Z,26.13
2022-08-27T05:41:08.656Z,26.39
2022-08-27T05:42:43.191Z,26.49
2022-08-27T05:44:41.051Z,26.58
2022-08-27T05:46:17.447Z,26.60
2022-08-27T05:47:50.895Z,26.71
2022-08-27T05:49:24.164Z,26.87
2022-08-27T05:50:56.701Z,26.99
2022-08-27T05:52:30.338Z,27.16
2022-08-27T05:54:09.023Z,27.20
2022-08-27T05:55:43.695Z,27.34
2022-08-27T05:57:16.932Z,27.51
2022-08-27T05:59:09.469Z,27.70
2022-08-27T06:01:02.224Z,27.86
2022-08-27T06:02:37.443Z,28.17
2022-08-27T06:04:11.130Z,28.21
2022-08-27T06:05:50.688Z,28.26
2022-08-27T06:07:24.020Z,28.30
2022-08-27T06:08:57.246Z,28.52
2022-08-27T06:10:32.374Z,28.76
2022-08-27T06:12:06.282Z,28.90
2022-08-27T06:13:39.676Z,29.17
2022-08-27T06:15:16.964Z,29.46
2022-08-27T06:16:49.758Z,29.68
2022-08-27T06:18:23.038Z,29.75
2022-08-27T06:19:56.424Z,29.75
2022-08-27T06:21:28.631Z,29.83
2022-08-27T06:23:02.419Z,29.87
2022-08-27T06:24:36.485Z,29.99
2022-08-27T06:26:13.753Z,30.07
2022-08-27T06:27:47.015Z,30.06
2022-08-27T06:29:20.674Z,30.17
2022-08-27T06:30:53.972Z,30.39
2022-08-27T06:32:27.211Z,30.31
2022-08-27T06:34:02.927Z,30.43
2022-08-27T06:35:41.059Z,30.37
2022-08-27T06:37:14.300Z,30.41
2022-08-27T06:38:49.471Z,30.35
2022-08-27T06:40:23.411Z,30.48
2022-08-27T06:41:58.770Z,30.72
2022-08-27T06:43:32.082Z,30.95
2022-08-27T06:45:06.177Z,31.16
2022-08-27T06:46:40.286Z,31.29
2022-08-27T06:48:14.104Z,31.32
2022-08-27T06:49:47.369Z,31.49
2022-08-27T06:51:24.530Z,31.60
2022-08-27T06:52:57.840Z,31.78
2022-08-27T06:54:31.342Z,31.80
2022-08-27T06:56:05.250Z,32.07
2022-08-27T06:57:39.827Z,32.10
2022-08-27T06:59:16.243Z,32.00
2022-08-27T07:00:51.092Z,32.06
2022-08-27T07:02:24.332Z,32.10
2022-08-27T07:03:58.598Z,31.92
2022-08-27T07:05:31.975Z,31.87
2022-08-27T07:07:06.107Z,31.89
2022-08-27T07:08:39.658Z,32.01
2022-08-27T07:10:13.122Z,32.30
2022-08-27T07:11:46.367Z,32.46
2022-08-27T07:13:21.513Z,32.53
2022-08-27T07:14:54.792Z,32.70
2022-08-27T07:16:29.391Z,32.71
2022-08-27T07:18:04.888Z,32.83
2022-08-27T07:19:40.927Z,32.84
2022-08-27T07:21:14.719Z,32.79
2022-08-27T07:22:49.191Z,33.00
2022-08-27T07:24:22.376Z,33.02
2022-08-27T07:25:55.992Z,33.09
2022-08-27T07:27:29.138Z,33.10
2022-08-27T07:29:03.994Z,33.34
2022-08-27T07:30:37.775Z,33.54
2022-08-27T07:32:11.511Z,33.64
2022-08-27T07:33:51.350Z,33.78
2022-08-27T07:35:25.490Z,33.87
2022-08-27T07:36:58.721Z,33.71
2022-08-27T07:38:32.272Z,33.75
2022-08-27T07:40:06.923Z,33.80
2022-08-27T07:41:53.973Z,33.81
2022-08-27T07:43:44.996Z,33.99
2022-08-27T07:45:19.848Z,34.05
2022-08-27T07:46:53.273Z,34.09
2022-08-27T07:48:27.996Z,34.27
2022-08-27T07:50:01.350Z,33.69
2022-08-27T07:51:37.528Z,33.29
2022-08-27T07:53:11.181Z,33.20
2022-08-27T07:54:44.586Z,33.55
2022-08-27T07:56:18.316Z,33.86
2022-08-27T07:57:52.696Z,34.07
2022-08-27T07:59:27.464Z,34.20
2022-08-27T08:01:02.230Z,34.48
2022-08-27T08:02:35.603Z,34.38
2022-08-27T08:04:10.109Z,34.14
2022-08-27T08:05:45.500Z,34.07
2022-08-27T08:07:18.834Z,34.28
2022-08-27T08:08:52.490Z,34.18
2022-08-27T08:10:26.144Z,34.52
2022-08-27T08:11:59.508Z,34.77
2022-08-27T08:13:32.693Z,34.74
2022-08-27T08:15:07.791Z,34.37
2022-08-27T08:16:42.688Z,34.44
2022-08-27T08:18:15.945Z,34.77
2022-08-27T08:20:15.504Z,34.96
2022-08-27T08:21:43.974Z,35.42
2022-08-27T08:23:17.369Z,35.76
2022-08-27T08:24:50.624Z,35.71
2022-08-27T08:26:24.263Z,35.82
2022-08-27T08:27:58.532Z,35.81
2022-08-27T08:29:33.568Z,35.54
2022-08-27T08:31:07.801Z,35.76
2022-08-27T08:32:43.427Z,35.59
2022-08-27T08:34:17.051Z,35.79
2022-08-27T08:35:51.636Z,36.02
2022-08-27T08:37:25.049Z,36.07
2022-08-27T08:38:59.025Z,36.06
2022-08-27T08:40:36.394Z,36.25
2022-08-27T08:42:24.800Z,36.36
2022-08-27T08:44:01.090Z,36.58
2022-08-27T08:45:42.911Z,36.42
2022-08-27T08:47:20.086Z,36.50
2022-08-27T08:48:59.995Z,36.63
2022-08-27T08:50:39.308Z,36.84
2022-08-27T08:52:31.114Z,36.49
2022-08-27T08:54:09.574Z,36.26
2022-08-27T08:55:48.323Z,36.29
2022-08-27T08:57:28.064Z,36.45
2022-08-27T08:59:04.869Z,36.65
2022-08-27T09:00:39.962Z,36.84
2022-08-27T09:02:18.697Z,36.82
2022-08-27T09:03:57.497Z,36.65
2022-08-27T09:05:31.162Z,36.51
2022-08-27T09:07:09.147Z,36.48
2022-08-27T09:08:44.118Z,36.41
2022-08-27T09:10:25.538Z,36.55
2022-08-27T09:12:02.324Z,36.60
2022-08-27T09:13:41.419Z,36.69
2022-08-27T09:15:18.262Z,36.80
2022-08-27T09:16:56.256Z,36.81
2022-08-27T09:18:30.276Z,36.94
2022-08-27T09:20:06.789Z,36.70
2022-08-27T09:21:50.038Z,36.58
2022-08-27T09:23:30.356Z,36.57
2022-08-27T09:25:12.146Z,36.57
2022-08-27T09:26:46.592Z,36.76
2022-08-27T09:28:41.283Z,37.04
2022-08-27T09:30:21.953Z,37.23
2022-08-27T09:31:58.217Z,37.47
2022-08-27T09:33:44.461Z,37.63
2022-08-27T09:35:29.247Z,37.19
2022-08-27T09:37:07.549Z,37.14
2022-08-27T09:38:52.693Z,37.19
2022-08-27T09:40:38.428Z,37.07
2022-08-27T09:42:26.978Z,36.97
2022-08-27T09:44:02.205Z,36.90
2022-08-27T09:45:36.565Z,36.68
2022-08-27T09:47:16.239Z,36.37
2022-08-27T09:48:49.612Z,36.08
2022-08-27T09:50:39.551Z,35.81
2022-08-27T09:52:32.269Z,35.66
2022-08-27T09:54:12.339Z,35.44
2022-08-27T09:55:49.166Z,35.35
2022-08-27T09:57:34.436Z,35.12
2022-08-27T09:59:10.292Z,35.11
2022-08-27T10:00:43.742Z,35.09
2022-08-27T10:02:20.079Z,34.99
2022-08-27T10:04:05.732Z,34.71
2022-08-27T10:05:50.695Z,34.74
2022-08-27T10:07:43.555Z,34.58
2022-08-27T10:09:21.782Z,34.44
2022-08-27T10:10:58.534Z,34.40
2022-08-27T10:12:36.988Z,34.30
2022-08-27T10:14:16.287Z,33.80
2022-08-27T10:16:07.561Z,33.73
2022-08-27T10:17:51.199Z,33.95
2022-08-27T10:19:37.100Z,34.12
2022-08-27T10:21:18.799Z,34.38
2022-08-27T10:23:03.208Z,34.62
2022-08-27T10:24:46.790Z,34.72
2022-08-27T10:26:30.787Z,34.94
2022-08-27T10:28:21.003Z,34.78
2022-08-27T10:30:03.421Z,34.89
2022-08-27T10:31:42.129Z,34.89
2022-08-27T10:33:23.881Z,34.71
2022-08-27T10:35:09.427Z,34.78
2022-08-27T10:36:54.962Z,34.86
2022-08-27T10:38:35.358Z,34.96
2022-08-27T10:40:16.145Z,35.04
2022-08-27T10:41:56.060Z,35.05
2022-08-27T10:44:06.840Z,34.98
2022-08-27T10:45:48.916Z,34.94
2022-08-27T10:47:37.587Z,35.00
2022-08-27T10:49:21.410Z,35.12
2022-08-27T10:51:01.982Z,35.18
2022-08-27T10:52:43.305Z,35.21
2022-08-27T10:54:26.903Z,35.31
2022-08-27T10:56:11.668Z,35.43
2022-08-27T10:58:15.550Z,35.23
2022-08-27T10:59:57.870Z,34.97
2022-08-27T11:01:42.135Z,34.84
2022-08-27T11:03:21.417Z,34.78
2022-08-27T11:05:00.889Z,34.74
2022-08-27T11:06:40.175Z,34.69
2022-08-27T11:08:23.062Z,34.56
2022-08-27T11:09:59.792Z,34.55
2022-08-27T11:13:38.671Z,34.33
2022-08-27T11:15:16.962Z,34.21
2022-08-27T11:16:56.470Z,34.07
2022-08-27T11:18:38.603Z,34.01
2022-08-27T11:20:16.538Z,33.98
2022-08-27T11:22:00.218Z,34.00
2022-08-27T11:23:49.579Z,33.94
2022-08-27T11:25:42.850Z,33.87
2022-08-27T11:27:23.155Z,33.85
2022-08-27T11:29:01.991Z,33.90
2022-08-27T11:30:45.417Z,33.99
2022-08-27T11:32:30.661Z,33.92
2022-08-27T11:34:10.823Z,33.89
2022-08-27T11:36:03.125Z,33.94
2022-08-27T11:37:54.681Z,33.94
2022-08-27T11:39:51.097Z,33.97
2022-08-27T11:41:55.423Z,34.09
2022-08-27T11:43:34.247Z,33.97
2022-08-27T11:45:11.288Z,33.92
2022-08-27T11:46:47.144Z,33.82
2022-08-27T11:48:25.328Z,33.74
2022-08-27T11:50:01.275Z,33.70
2022-08-27T11:51:36.808Z,33.72
2022-08-27T11:53:10.131Z,33.78
2022-08-27T11:54:50.267Z,33.80
2022-08-27T11:56:38.945Z,33.72
2022-08-27T11:58:27.130Z,33.73
2022-08-27T12:00:12.889Z,33.76
2022-08-27T12:01:46.401Z,33.80
2022-08-27T12:03:28.358Z,33.89
2022-08-27T12:05:11.083Z,34.02
2022-08-27T12:06:51.328Z,34.03
2022-08-27T12:08:31.759Z,34.07
2022-08-27T12:10:22.192Z,34.10
2022-08-27T12:12:04.685Z,34.06
2022-08-27T12:13:43.394Z,34.07
2022-08-27T12:15:22.361Z,34.20
2022-08-27T12:17:11.914Z,34.25
2022-08-27T12:18:57.679Z,34.31
2022-08-27T12:20:44.568Z,34.37
2022-08-27T12:22:53.512Z,34.40
2022-08-27T12:24:49.940Z,34.58
2022-08-27T12:26:33.512Z,34.63
2022-08-27T12:28:09.470Z,34.67
2022-08-27T12:29:49.990Z,34.51
2022-08-27T12:31:25.132Z,34.46
2022-08-27T12:33:00.746Z,34.52
2022-08-27T12:34:44.063Z,34.57
2022-08-27T12:36:27.566Z,34.54
2022-08-27T12:38:13.586Z,34.54
2022-08-27T12:39:49.840Z,34.59
2022-08-27T12:41:32.061Z,34.55
2022-08-27T12:43:07.890Z,34.52
2022-08-27T12:44:41.268Z,34.54
2022-08-27T12:46:17.340Z,34.65
2022-08-27T12:47:51.421Z,34.69
2022-08-27T12:49:38.199Z,34.71
2022-08-27T12:51:17.478Z,34.80
2022-08-27T12:53:19.751Z,34.84
2022-08-27T12:55:05.015Z,34.83
2022-08-27T12:56:56.627Z,34.86
2022-08-27T12:58:45.072Z,34.84
2022-08-27T13:00:22.095Z,34.84
2022-08-27T13:02:15.335Z,34.73
2022-08-27T13:03:51.985Z,34.70
2022-08-27T13:05:26.421Z,34.65
2022-08-27T13:06:59.630Z,34.58
2022-08-27T13:08:35.712Z,34.58
2022-08-27T13:10:15.627Z,34.53
2022-08-27T13:11:55.720Z,34.62
2022-08-27T13:13:29.030Z,34.67
2022-08-27T13:15:08.110Z,34.59
2022-08-27T13:16:48.835Z,34.56
2022-08-27T13:18:22.786Z,34.52
2022-08-27T13:20:00.351Z,34.34
2022-08-27T13:21:33.894Z,34.45
2022-08-27T13:23:17.273Z,34.50
2022-08-27T13:24:57.253Z,34.52
2022-08-27T13:26:34.113Z,34.56
2022-08-27T13:28:14.602Z,34.58
2022-08-27T13:29:48.242Z,34.63
2022-08-27T13:31:23.936Z,34.61
2022-08-27T13:32:58.787Z,34.67
2022-08-27T13:34:37.312Z,34.70
2022-08-27T13:36:11.761Z,34.71
2022-08-27T13:37:49.474Z,34.74
2022-08-27T13:39:23.105Z,34.76
2022-08-27T13:40:59.435Z,34.73
2022-08-27T13:42:33.850Z,34.74
2022-08-27T13:44:11.906Z,34.63
2022-08-27T13:45:51.620Z,34.50
2022-08-27T13:47:26.854Z,34.39
2022-08-27T13:49:01.719Z,34.34
2022-08-27T13:50:36.851Z,34.38
2022-08-27T13:52:25.136Z,34.41
2022-08-27T13:54:13.707Z,34.44
2022-08-27T13:55:48.004Z,34.38
2022-08-27T13:57:26.086Z,34.43
2022-08-27T13:59:12.447Z,34.54
2022-08-27T14:00:46.225Z,34.57
2022-08-27T14:02:27.868Z,34.58
2022-08-27T14:04:02.845Z,34.62
2022-08-27T14:05:37.107Z,34.45
2022-08-27T14:07:14.283Z,34.44
2022-08-27T14:08:47.520Z,34.46
2022-08-27T14:10:34.120Z,34.50
2022-08-27T14:12:10.865Z,34.55
2022-08-27T14:13:47.452Z,34.48
2022-08-27T14:15:34.702Z,34.44
2022-08-27T14:17:22.117Z,34.43
2022-08-27T14:18:59.486Z,34.39
2022-08-27T14:20:33.155Z,34.27
2022-08-27T14:22:06.649Z,34.22
2022-08-27T14:23:40.233Z,34.19
2022-08-27T14:25:15.158Z,34.09
2022-08-27T14:26:50.824Z,34.13
2022-08-27T14:28:24.155Z,34.11
2022-08-27T14:29:57.799Z,34.06
2022-08-27T14:31:32.579Z,33.96
2022-08-27T14:33:05.902Z,33.92
2022-08-27T14:34:39.302Z,33.90
2022-08-27T14:36:13.586Z,33.83
2022-08-27T14:37:47.503Z,33.70
2022-08-27T14:39:20.682Z,33.71
2022-08-27T14:41:01.732Z,33.71
2022-08-27T14:42:35.551Z,33.82
2022-08-27T14:44:09.913Z,33.90
2022-08-27T14:45:45.287Z,33.89
2022-08-27T14:47:20.816Z,33.92
2022-08-27T14:48:56.013Z,33.86
2022-08-27T14:50:29.259Z,33.81
2022-08-27T14:52:03.282Z,33.77
2022-08-27T14:53:38.269Z,33.74
2022-08-27T14:55:14.492Z,33.75
2022-08-27T14:56:47.738Z,33.74
2022-08-27T14:58:54.125Z,33.74
2022-08-27T15:00:27.974Z,33.61
2022-08-27T15:02:02.585Z,33.52
2022-08-27T15:03:39.905Z,33.46
2022-08-27T15:05:13.270Z,33.46
2022-08-27T15:06:46.614Z,33.44
2022-08-27T15:08:25.715Z,33.40
2022-08-27T15:10:00.998Z,33.44
2022-08-27T15:11:36.770Z,33.47
2022-08-27T15:13:11.541Z,33.50
2022-08-27T15:14:44.995Z,33.48
2022-08-27T15:16:27.072Z,33.48
2022-08-27T15:18:00.309Z,33.50
2022-08-27T15:19:35.509Z,33.51
2022-08-27T15:21:08.881Z,33.46
2022-08-27T15:22:44.374Z,33.47
2022-08-27T15:24:20.520Z,33.47
2022-08-27T15:25:54.105Z,33.46
2022-08-27T15:27:37.942Z,33.50
2022-08-27T15:29:12.093Z,33.48
2022-08-27T15:30:45.536Z,33.43
2022-08-27T15:32:27.851Z,33.42
2022-08-27T15:34:02.209Z,33.46
2022-08-27T15:35:36.852Z,33.47
2022-08-27T15:37:10.362Z,33.47
2022-08-27T15:38:43.798Z,33.45
2022-08-27T15:40:19.716Z,33.42
2022-08-27T15:42:08.610Z,33.46
2022-08-27T15:43:42.091Z,33.37
2022-08-27T15:45:16.266Z,33.36
2022-08-27T15:46:51.000Z,33.41
2022-08-27T15:48:24.544Z,33.33
2022-08-27T15:49:58.163Z,33.31
2022-08-27T15:51:36.102Z,33.26
2022-08-27T15:53:10.675Z,33.25
2022-08-27T15:54:44.658Z,33.26
2022-08-27T15:56:19.819Z,33.16
2022-08-27T15:57:55.674Z,33.17
2022-08-27T15:59:29.322Z,33.18
2022-08-27T16:01:07.771Z,33.18
2022-08-27T16:02:42.822Z,33.21
2022-08-27T16:04:17.666Z,33.18
2022-08-27T16:05:51.030Z,33.16
2022-08-27T16:07:26.087Z,33.17
2022-08-27T16:08:59.567Z,33.13
2022-08-27T16:10:33.518Z,33.15
2022-08-27T16:12:06.459Z,33.11
2022-08-27T16:13:39.701Z,33.09
2022-08-27T16:15:14.364Z,33.04
2022-08-27T16:16:50.375Z,32.99
2022-08-27T16:18:27.841Z,32.90
2022-08-27T16:20:01.634Z,32.86
2022-08-27T16:21:36.900Z,32.81
2022-08-27T16:23:11.587Z,32.79
2022-08-27T16:24:45.044Z,32.70
2022-08-27T16:26:18.501Z,32.69
2022-08-27T16:27:53.514Z,32.59
2022-08-27T16:29:26.884Z,32.54
2022-08-27T16:31:00.323Z,32.43
2022-08-27T16:32:33.794Z,32.24
2022-08-27T16:34:15.561Z,32.16
2022-08-27T16:35:49.195Z,31.97
2022-08-27T16:37:22.798Z,31.81
2022-08-27T16:38:57.827Z,31.64
2022-08-27T16:40:30.482Z,31.48
2022-08-27T16:42:04.310Z,31.32
2022-08-27T16:43:37.533Z,31.14
2022-08-27T16:45:14.195Z,31.00
2022-08-27T16:46:47.820Z,30.88
2022-08-27T16:48:39.450Z,30.78
2022-08-27T16:50:29.813Z,30.68
2022-08-27T16:52:04.399Z,30.58
2022-08-27T16:53:39.956Z,30.54
2022-08-27T16:55:15.062Z,30.43
2022-08-27T16:56:48.530Z,30.38
2022-08-27T16:58:24.688Z,30.22
2022-08-27T16:59:58.057Z,30.15
2022-08-27T17:01:31.689Z,29.96
2022-08-27T17:03:05.721Z,29.85
2022-08-27T17:04:42.359Z,29.69
2022-08-27T17:06:17.921Z,29.55
2022-08-27T17:07:51.330Z,29.42
2022-08-27T17:09:24.546Z,29.29
2022-08-27T17:10:59.281Z,29.21
2022-08-27T17:12:32.875Z,29.06
2022-08-27T17:14:06.225Z,28.95
2022-08-27T17:15:39.721Z,28.90
2022-08-27T17:17:13.348Z,28.81
2022-08-27T17:18:47.545Z,28.68
2022-08-27T17:20:20.745Z,28.61
2022-08-27T17:21:55.068Z,28.52
2022-08-27T17:23:34.052Z,28.35
2022-08-27T17:25:08.491Z,28.20
2022-08-27T17:26:43.134Z,28.10
2022-08-27T17:28:16.472Z,28.00
2022-08-27T17:29:50.069Z,27.94
2022-08-27T17:31:28.383Z,27.84
2022-08-27T17:33:01.865Z,27.80
2022-08-27T17:34:35.695Z,27.79
2022-08-27T17:36:10.596Z,27.75
2022-08-27T17:37:44.607Z,27.77
2022-08-27T17:39:18.002Z,27.72
2022-08-27T17:40:52.714Z,27.72
2022-08-27T17:42:28.218Z,27.66
2022-08-27T17:44:04.377Z,27.51
2022-08-27T17:45:37.687Z,27.42
2022-08-27T17:47:11.178Z,27.41
2022-08-27T17:48:44.632Z,27.37
2022-08-27T17:50:18.373Z,27.31
2022-08-27T17:51:56.357Z,27.21
2022-08-27T17:53:29.576Z,27.13
2022-08-27T17:55:02.942Z,27.11
2022-08-27T17:56:39.447Z,27.10
2022-08-27T17:58:14.064Z,27.13
2022-08-27T17:59:48.141Z,27.14
2022-08-27T18:01:24.315Z,27.13
2022-08-27T18:03:02.705Z,27.15
2022-08-27T18:04:36.022Z,27.12
2022-08-27T18:06:09.379Z,26.99
2022-08-27T18:07:43.134Z,26.91
2022-08-27T18:09:16.672Z,26.84
2022-08-27T18:10:50.022Z,26.78
2022-08-27T18:12:27.103Z,26.65
2022-08-27T18:14:05.029Z,26.69
2022-08-27T18:15:41.041Z,26.60
2022-08-27T18:17:14.372Z,26.57
2022-08-27T18:18:48.471Z,26.55
2022-08-27T18:20:23.365Z,26.45
2022-08-27T18:21:56.942Z,26.34
2022-08-27T18:23:30.183Z,26.32
2022-08-27T18:25:02.444Z,26.27
2022-08-27T18:26:36.142Z,26.24
2022-08-27T18:28:12.137Z,26.19
2022-08-27T18:29:46.792Z,26.08
2022-08-27T18:31:27.491Z,25.92
2022-08-27T18:33:02.114Z,25.78
2022-08-27T18:34:35.490Z,25.71
2022-08-27T18:36:15.036Z,25.68
2022-08-27T18:37:48.941Z,25.63
2022-08-27T18:39:22.291Z,25.62
2022-08-27T18:41:00.579Z,25.55
2022-08-27T18:42:38.006Z,25.39
2022-08-27T18:44:17.673Z,25.31
2022-08-27T18:45:52.849Z,25.30
2022-08-27T18:47:26.693Z,25.32
2022-08-27T18:48:59.814Z,25.39
2022-08-27T18:50:34.474Z,25.39
2022-08-27T18:52:09.032Z,25.36
2022-08-27T18:53:45.093Z,25.34
2022-08-27T18:55:20.871Z,25.27
2022-08-27T18:56:54.677Z,25.13
2022-08-27T18:58:29.135Z,24.99
2022-08-27T19:00:02.726Z,24.78
2022-08-27T19:01:37.531Z,24.72
2022-08-27T19:03:12.661Z,24.64
2022-08-27T19:04:46.172Z,24.68
2022-08-27T19:06:20.554Z,24.69
2022-08-27T19:07:53.796Z,24.68
2022-08-27T19:09:27.363Z,24.53
2022-08-27T19:11:01.140Z,24.43
2022-08-27T19:12:34.517Z,24.24
2022-08-27T19:14:10.406Z,24.17
2022-08-27T19:15:50.221Z,24.14
2022-08-27T19:17:28.025Z,24.20
2022-08-27T19:19:01.493Z,24.11
2022-08-27T19:20:34.648Z,24.09
2022-08-27T19:22:08.131Z,24.03
2022-08-27T19:23:41.639Z,23.99
2022-08-27T19:25:16.195Z,23.95
2022-08-27T19:26:50.484Z,23.92
2022-08-27T19:28:26.999Z,23.91
2022-08-27T19:30:00.310Z,23.91
2022-08-27T19:31:36.522Z,23.88
2022-08-27T19:33:11.555Z,23.88
2022-08-27T19:34:44.810Z,23.88
2022-08-27T19:36:19.260Z,23.88
2022-08-27T19:37:54.232Z,23.81
2022-08-27T19:39:27.724Z,23.81
2022-08-27T19:41:01.907Z,23.73
2022-08-27T19:42:35.309Z,23.76
2022-08-27T19:44:08.981Z,23.65
2022-08-27T19:45:42.645Z,23.63
2022-08-27T19:47:16.947Z,23.65
2022-08-27T19:48:58.158Z,23.63
2022-08-27T19:50:31.647Z,23.61
2022-08-27T19:52:08.322Z,23.61
2022-08-27T19:53:43.511Z,23.56
2022-08-27T19:55:16.892Z,23.59
2022-08-27T19:56:50.269Z,23.54
2022-08-27T19:58:23.538Z,23.51
2022-08-27T19:59:56.734Z,23.55
2022-08-27T20:01:30.107Z,23.52
2022-08-27T20:03:03.465Z,23.54
2022-08-27T20:04:56.079Z,23.54
2022-08-27T20:06:34.722Z,23.53
2022-08-27T20:08:08.259Z,23.51
2022-08-27T20:09:42.463Z,23.50
2022-08-27T20:11:15.691Z,23.47
2022-08-27T20:12:49.042Z,23.43
2022-08-27T20:14:22.660Z,23.36
2022-08-27T20:15:55.836Z,23.29
2022-08-27T20:17:29.976Z,23.26
2022-08-27T20:19:02.757Z,23.24
2022-08-27T20:20:37.604Z,23.22
2022-08-27T20:22:11.361Z,23.15
2022-08-27T20:23:44.622Z,23.11
2022-08-27T20:25:18.204Z,23.03
2022-08-27T20:26:52.227Z,23.00
2022-08-27T20:28:41.197Z,22.94
2022-08-27T20:30:15.949Z,22.83
2022-08-27T20:31:49.862Z,22.73
2022-08-27T20:33:23.195Z,22.63
2022-08-27T20:34:56.458Z,22.57
2022-08-27T20:36:33.139Z,22.55
2022-08-27T20:38:07.638Z,22.47
2022-08-27T20:39:41.293Z,22.37
2022-08-27T20:41:14.486Z,22.23
2022-08-27T20:42:47.835Z,22.19
2022-08-27T20:44:21.222Z,22.17
2022-08-27T20:45:55.182Z,22.21
2022-08-27T20:47:29.272Z,22.22